Time;durP1;ratioP1;P1;durP2;ratioP2;P2;SDS_P1;SDS_P2;PMS_P1;PMS_P2;Temp;Humidity;BMP_temperature;BMP_pressure;BME280_temperature;BME280_humidity;BME280_pressure;Samples;Min_cycle;Max_cycle;Signal;HPM_P1;HPM_P2
2022/12/26 00:01:17;;;;;;;;;5.33;4.33;;;;;13.84;72.52;101077.41;6213581;22;45519;-84
2022/12/26 00:03:43;;;;;;;;;4.33;3.00;;;;;13.84;72.29;101093.28;6213338;22;46565;-83
2022/12/26 00:06:13;;;;;;;;;5.00;4.00;;;;;13.84;72.40;101095.94;6215406;22;45282;-83
2022/12/26 00:08:40;;;;;;;;;3.33;3.00;;;;;13.84;72.10;101095.94;6212916;22;45399;-84
2022/12/26 00:11:05;;;;;;;;;5.67;4.67;;;;;13.82;72.63;101091.56;6213514;22;45517;-84
2022/12/26 00:13:31;;;;;;;;;4.00;4.00;;;;;13.83;72.60;101088.91;6210869;22;46980;-85
2022/12/26 00:15:56;;;;;;;;;2.00;2.00;;;;;13.80;72.15;101088.94;6212794;22;45263;-85
2022/12/26 00:18:21;;;;;;;;;2.00;2.00;;;;;13.84;72.47;101098.59;6213304;22;45299;-86
2022/12/26 00:20:47;;;;;;;;;2.67;2.33;;;;;13.85;72.37;101100.34;6212810;22;45521;-84
2022/12/26 00:23:12;;;;;;;;;3.00;1.33;;;;;13.82;72.03;101104.78;6237260;22;46630;-84
2022/12/26 00:25:37;;;;;;;;;2.00;1.33;;;;;13.87;72.11;101113.56;6215007;22;45357;-84
2022/12/26 00:28:03;;;;;;;;;3.33;3.00;;;;;13.79;72.25;101105.72;6214261;22;45296;-84
2022/12/26 00:30:28;;;;;;;;;3.33;3.33;;;;;13.77;72.71;101099.56;6214249;22;46111;-85
2022/12/26 00:32:54;;;;;;;;;3.00;2.00;;;;;13.79;72.70;101108.38;6213899;22;46964;-85
2022/12/26 00:35:19;;;;;;;;;3.33;3.33;;;;;13.76;72.61;101092.50;6216007;22;45410;-85
2022/12/26 00:37:45;;;;;;;;;4.00;4.00;;;;;13.74;72.96;101099.59;6217140;22;45310;-85
2022/12/26 00:40:10;;;;;;;;;6.33;4.00;;;;;13.74;72.88;101099.59;6214657;22;45382;-85
2022/12/26 00:42:36;;;;;;;;;9.00;6.00;;;;;13.79;72.90;101092.50;6213806;22;47060;-84
2022/12/26 00:45:02;;;;;;;;;6.33;6.00;;;;;13.75;73.00;101100.47;6215924;22;45347;-84
2022/12/26 00:47:27;;;;;;;;;7.33;5.00;;;;;13.77;73.30;101110.16;6213923;22;45209;-84
2022/12/26 00:49:52;;;;;;;;;3.67;3.33;;;;;13.74;73.15;101112.84;6215244;22;45459;-84
2022/12/26 00:52:18;;;;;;;;;6.33;3.67;;;;;13.76;73.09;101126.03;6215497;22;46451;-83
2022/12/26 00:54:44;;;;;;;;;6.67;4.33;;;;;13.68;73.56;101116.44;6213080;22;45921;-84
2022/12/26 00:57:09;;;;;;;;;5.33;5.33;;;;;13.74;73.40;101119.88;6213371;22;45244;-84
2022/12/26 00:59:36;;;;;;;;;6.00;6.00;;;;;13.67;73.38;101093.47;6216603;22;45322;-84
2022/12/26 01:02:36;;;;;;;;;6.00;5.00;;;;;13.74;73.48;101102.25;6240445;22;46631;-85
2022/12/26 01:04:47;;;;;;;;;7.33;5.00;;;;;13.70;73.91;101108.44;6216945;22;45387;-84
2022/12/26 01:07:12;;;;;;;;;8.67;6.33;;;;;13.65;74.27;101100.56;6214901;22;45347;-84
2022/12/26 01:09:37;;;;;;;;;7.33;4.33;;;;;13.65;74.45;101113.78;6214446;22;45402;-84
2022/12/26 01:12:03;;;;;;;;;6.00;6.00;;;;;13.62;74.58;101120.88;6215119;22;47055;-84
2022/12/26 01:14:28;;;;;;;;;7.33;5.67;;;;;13.67;75.11;101140.25;6217332;22;45310;-84
2022/12/26 01:16:54;;;;;;;;;6.67;5.67;;;;;13.63;75.18;101141.16;6217818;22;45425;-85
2022/12/26 01:19:19;;;;;;;;;5.00;5.00;;;;;13.60;75.26;101144.69;6213153;22;45622;-84
2022/12/26 01:21:45;;;;;;;;;4.00;4.00;;;;;13.61;75.31;101145.59;6215288;22;45906;-84
2022/12/26 01:24:10;;;;;;;;;7.00;5.67;;;;;13.54;75.09;101146.53;6212973;22;45536;-85
2022/12/26 01:26:36;;;;;;;;;2.00;2.00;;;;;13.56;75.62;101161.50;6215805;22;45481;-85
2022/12/26 01:29:01;;;;;;;;;9.00;4.00;;;;;13.55;75.58;101153.56;6239052;22;45462;-85
2022/12/26 01:31:26;;;;;;;;;7.67;7.00;;;;;13.54;75.75;101139.47;6213566;22;48078;-86
2022/12/26 01:33:52;;;;;;;;;6.67;6.00;;;;;13.54;75.50;101133.31;6238773;22;45775;-85
2022/12/26 01:36:18;;;;;;;;;5.67;4.00;;;;;13.46;75.87;101134.25;6213535;22;45597;-84
2022/12/26 01:38:44;;;;;;;;;3.33;3.33;;;;;13.41;75.74;101132.53;6215087;22;45331;-84
2022/12/26 01:41:15;;;;;;;;;5.33;4.00;;;;;13.44;75.55;101149.28;6212888;22;46947;-84
2022/12/26 01:43:46;;;;;;;;;4.33;3.00;;;;;13.41;75.47;101167.78;6216072;22;45382;-84
2022/12/26 01:46:12;;;;;;;;;5.00;3.67;;;;;13.38;75.54;101174.91;6217842;22;45200;-84
2022/12/26 01:48:38;;;;;;;;;4.00;4.00;;;;;13.34;75.79;101166.13;6217873;22;45281;-84
2022/12/26 01:51:05;;;;;;;;;5.00;5.00;;;;;13.34;75.86;101191.66;6215154;22;48348;-84
2022/12/26 01:53:41;;;;;;;;;6.67;5.00;;;;;13.33;75.83;101190.78;6215842;22;45494;-84
2022/12/26 01:56:22;;;;;;;;;5.00;5.00;;;;;13.31;75.82;101194.34;6218642;22;45220;-85
2022/12/26 01:59:01;;;;;;;;;3.00;3.00;;;;;13.33;75.52;101201.38;6216387;22;45520;-84
2022/12/26 02:01:30;;;;;;;;;5.00;5.00;;;;;13.28;75.70;101199.66;6216042;22;47175;-84
2022/12/26 02:06:42;;;;;;;;;1.00;0.00;;;;;13.35;75.85;101209.31;6217515;22;45240;-84
2022/12/26 02:09:08;;;;;;;;;3.33;2.33;;;;;13.33;75.76;101193.44;6214726;22;45486;-84
2022/12/26 02:11:43;;;;;;;;;5.33;4.00;;;;;13.35;75.64;101196.06;6215126;22;47059;-85
2022/12/26 02:14:11;;;;;;;;;2.67;2.67;;;;;13.32;75.52;101204.03;6241558;22;45766;-83
2022/12/26 02:16:39;;;;;;;;;4.00;4.00;;;;;13.26;75.89;101197.03;6216178;22;45417;-84
2022/12/26 02:19:21;;;;;;;;;5.33;4.00;;;;;13.25;76.00;101179.38;6216089;22;45576;-85
2022/12/26 02:22:21;;;;;;;;;6.33;5.00;;;;;13.22;75.98;101174.09;6218853;22;45519;-85
2022/12/26 02:24:50;;;;;;;;;3.33;2.33;;;;;13.26;76.39;101178.53;6215868;22;45881;-85
2022/12/26 02:27:15;;;;;;;;;4.67;4.67;;;;;13.25;75.95;101180.22;6215989;22;45233;-85
2022/12/26 02:30:02;;;;;;;;;2.67;2.00;;;;;13.18;76.16;101175.91;6215004;22;45575;-85
2022/12/26 02:32:47;;;;;;;;;4.00;4.00;;;;;13.19;76.20;101201.44;6214233;22;47843;-86
2022/12/26 02:35:41;;;;;;;;;5.00;4.00;;;;;13.19;75.90;101204.09;6215983;22;45712;-86
2022/12/26 02:38:24;;;;;;;;;3.67;2.00;;;;;13.19;75.64;101209.38;6218374;22;45290;-85
2022/12/26 02:40:59;;;;;;;;;1.00;1.00;;;;;13.18;75.56;101206.75;6217548;22;45350;-83
2022/12/26 02:47:01;;;;;;;;;3.00;3.00;;;;;13.14;75.99;101187.38;6217086;22;47156;-85
2022/12/26 02:47:04;;;;;;;;;3.33;2.00;;;;;13.14;75.49;101176.81;6216909;22;45258;-85
2022/12/26 03:13:10;;;;;;;;;1.00;1.00;;;;;13.09;75.24;101178.59;6217529;22;45225;-84
2022/12/26 03:18:34;;;;;;;;;0.67;0.67;;;;;13.01;75.08;101161.91;6218016;22;45749;-86
2022/12/26 03:21:00;;;;;;;;;1.00;1.00;;;;;13.02;75.04;101166.34;6215279;22;45670;-85
2022/12/26 03:23:27;;;;;;;;;2.00;1.00;;;;;13.00;75.36;101174.25;6216800;22;45367;-85
2022/12/26 03:28:47;;;;;;;;;1.00;1.00;;;;;13.02;75.03;101177.78;6217072;22;45375;-85
2022/12/26 03:31:14;;;;;;;;;5.00;3.33;;;;;13.01;75.31;101185.69;6190911;22;45200;-85
2022/12/26 03:36:48;;;;;;;;;2.00;2.00;;;;;13.05;75.26;101186.59;6217877;22;45241;-86
2022/12/26 04:44:27;;;;;;;;;2.33;1.00;;;;;12.89;73.96;101223.66;6219384;22;45292;-86
2022/12/26 04:46:55;;;;;;;;;0.00;0.00;;;;;12.86;74.01;101220.19;6219081;22;45201;-85
2022/12/26 04:52:08;;;;;;;;;2.00;1.00;;;;;12.91;73.81;101250.97;6219521;22;45165;-86
2022/12/26 04:54:33;;;;;;;;;0.00;0.00;;;;;12.87;74.08;101262.44;6191608;22;45292;-86
2022/12/26 04:56:59;;;;;;;;;1.00;1.00;;;;;12.86;73.87;101251.88;6191572;22;45412;-86
2022/12/26 04:59:25;;;;;;;;;0.00;0.00;;;;;12.89;73.77;101254.50;6219105;22;46651;-85
2022/12/26 05:10:15;;;;;;;;;3.00;3.00;;;;;12.82;73.34;101239.56;6217874;22;45190;-84
2022/12/26 05:12:41;;;;;;;;;1.00;1.00;;;;;12.84;73.59;101272.16;6216225;22;45331;-84
2022/12/26 05:15:06;;;;;;;;;3.33;2.33;;;;;12.83;73.84;101279.19;6191563;22;45250;-84
2022/12/26 05:29:04;;;;;;;;;2.33;2.33;;;;;12.70;73.31;101272.22;6218467;22;45162;-85
2022/12/26 05:31:30;;;;;;;;;0.00;0.00;;;;;12.70;73.46;101267.81;6191253;22;47251;-85
2022/12/26 05:34:04;;;;;;;;;0.00;0.00;;;;;12.68;73.63;101266.91;6191331;22;45167;-85
2022/12/26 05:36:38;;;;;;;;;1.00;1.00;;;;;12.67;73.53;101273.09;6216147;22;45262;-84
2022/12/26 05:39:04;;;;;;;;;1.00;1.00;;;;;12.62;73.46;101272.22;6191090;22;45475;-85
2022/12/26 05:41:30;;;;;;;;;1.67;1.00;;;;;12.59;73.44;101274.88;6190757;22;48446;-85
2022/12/26 05:43:55;;;;;;;;;3.33;2.00;;;;;12.61;73.58;101281.03;6218440;22;45216;-84
2022/12/26 05:46:21;;;;;;;;;2.00;1.00;;;;;12.62;73.42;101292.50;6190638;22;45606;-85
2022/12/26 05:48:46;;;;;;;;;2.00;2.00;;;;;12.57;73.57;101295.13;6191356;22;45270;-84
2022/12/26 05:51:11;;;;;;;;;1.67;1.00;;;;;12.53;73.50;101298.66;6217716;22;45707;-85
2022/12/26 05:53:37;;;;;;;;;1.00;1.00;;;;;12.62;73.72;101326.84;6217877;22;45233;-84
2022/12/26 05:56:09;;;;;;;;;0.67;0.67;;;;;12.63;73.42;101339.16;6190519;22;45421;-84
2022/12/26 05:58:35;;;;;;;;;2.00;2.00;;;;;12.63;73.58;101321.53;6190863;22;45555;-84
2022/12/26 06:01:19;;;;;;;;;0.00;0.00;;;;;12.60;73.28;101320.66;6190497;22;47902;-84
2022/12/26 06:03:49;;;;;;;;;2.00;1.00;;;;;12.58;73.51;101320.66;6218306;22;45157;-84
2022/12/26 06:06:15;;;;;;;;;2.00;2.00;;;;;12.62;73.09;101322.41;6216045;22;45401;-84
2022/12/26 06:08:41;;;;;;;;;2.33;2.33;;;;;12.61;73.05;101315.38;6198455;22;45284;-84
2022/12/26 06:11:09;;;;;;;;;2.33;1.00;;;;;12.57;73.06;101303.94;6220347;22;47577;-85
2022/12/26 06:13:34;;;;;;;;;1.00;1.00;;;;;12.55;72.83;101310.09;6220841;22;45147;-82
2022/12/26 06:16:14;;;;;;;;;1.33;0.33;;;;;12.50;72.79;101291.63;6220707;22;45246;-82
2022/12/26 06:18:40;;;;;;;;;1.00;1.00;;;;;12.52;72.74;101295.16;6220609;22;45460;-82
2022/12/26 06:21:08;;;;;;;;;1.00;1.00;;;;;12.54;72.88;101295.16;6244946;22;48119;-83
2022/12/26 06:23:35;;;;;;;;;1.00;1.00;;;;;12.54;72.42;101298.66;6246310;22;45887;-83
2022/12/26 06:26:00;;;;;;;;;1.00;1.00;;;;;12.52;72.33;101289.00;6220702;22;45218;-83
2022/12/26 06:28:26;;;;;;;;;2.00;2.00;;;;;12.44;72.81;101269.66;6248548;22;45412;-83
2022/12/26 06:30:52;;;;;;;;;1.00;1.00;;;;;12.44;72.64;101282.84;6220495;22;47308;-83
2022/12/26 06:33:20;;;;;;;;;2.00;2.00;;;;;12.35;72.35;101282.00;6221153;22;45411;-86
2022/12/26 06:35:45;;;;;;;;;0.00;0.00;;;;;12.38;72.45;101318.06;6220658;22;45470;-83
2022/12/26 06:38:11;;;;;;;;;1.00;1.00;;;;;12.31;72.53;101303.13;6220436;22;45478;-83
2022/12/26 06:40:39;;;;;;;;;0.00;0.00;;;;;12.29;72.42;101311.03;6220678;22;46997;-83
2022/12/26 06:43:04;;;;;;;;;1.00;1.00;;;;;12.30;72.67;101307.53;6248111;22;45259;-83
2022/12/26 06:45:30;;;;;;;;;3.00;1.67;;;;;12.25;72.35;101327.78;6221390;22;45099;-85
2022/12/26 06:47:55;;;;;;;;;1.00;1.00;;;;;12.21;72.62;101323.38;6249226;22;45214;-85
2022/12/26 06:50:22;;;;;;;;;1.00;1.00;;;;;12.24;72.75;101331.31;6221155;22;47714;-85
2022/12/26 06:52:47;;;;;;;;;1.67;0.67;;;;;12.18;72.73;101322.50;6221541;22;45207;-85
2022/12/26 06:55:13;;;;;;;;;0.00;0.00;;;;;12.24;72.87;101335.69;6221523;22;45365;-84
2022/12/26 06:57:38;;;;;;;;;3.00;3.00;;;;;12.20;72.65;101332.19;6248284;22;45267;-83
2022/12/26 07:00:04;;;;;;;;;1.00;1.00;;;;;12.26;72.75;101341.84;6221048;22;48375;-83
2022/12/26 07:02:30;;;;;;;;;1.00;1.00;;;;;12.26;72.75;101339.22;6220892;22;45360;-86
2022/12/26 07:04:55;;;;;;;;;0.00;0.00;;;;;12.25;72.44;101333.06;6221066;22;45363;-83
2022/12/26 07:07:20;;;;;;;;;1.00;1.00;;;;;12.32;72.85;101355.03;6248040;22;45379;-84
2022/12/26 07:09:46;;;;;;;;;3.00;3.00;;;;;12.27;72.62;101335.66;6225849;22;46606;-83
2022/12/26 07:12:11;;;;;;;;;4.00;1.00;;;;;12.29;72.71;101348.00;6218342;22;45330;-84
2022/12/26 07:14:37;;;;;;;;;1.00;1.00;;;;;12.36;72.37;101360.31;6218461;22;45508;-86
2022/12/26 07:17:02;;;;;;;;;1.00;0.67;;;;;12.31;72.54;101346.25;6217955;22;45466;-87
2022/12/26 07:19:28;;;;;;;;;2.33;2.33;;;;;12.29;72.33;101353.28;6217497;22;45167;-82
2022/12/26 07:21:53;;;;;;;;;3.33;2.33;;;;;12.32;72.50;101361.22;6215441;22;45245;-82
2022/12/26 07:24:20;;;;;;;;;1.00;1.00;;;;;12.32;72.47;101365.59;6217321;22;45178;-87
2022/12/26 07:26:47;;;;;;;;;1.00;1.00;;;;;12.29;72.41;101363.84;6190822;22;45474;-86
2022/12/26 07:29:14;;;;;;;;;2.00;2.00;;;;;12.23;72.54;101355.06;6190481;22;47122;-85
2022/12/26 07:31:40;;;;;;;;;2.00;2.00;;;;;12.25;72.53;101367.38;6190596;22;45378;-85
2022/12/26 07:34:06;;;;;;;;;1.00;1.00;;;;;12.19;72.33;101359.47;6190621;22;45400;-86
2022/12/26 07:36:32;;;;;;;;;0.00;0.00;;;;;12.10;72.38;101360.31;6216110;22;45414;-87
2022/12/26 07:38:58;;;;;;;;;1.00;1.00;;;;;12.14;72.26;101363.88;6190416;22;47415;-87
2022/12/26 07:44:08;;;;;;;;;2.67;1.00;;;;;12.15;72.63;101370.88;6218171;22;45388;-87
2022/12/26 07:46:34;;;;;;;;;1.67;1.00;;;;;12.13;72.83;101372.63;6216875;22;45178;-85
2022/12/26 07:49:00;;;;;;;;;3.00;2.00;;;;;12.12;72.72;101382.31;6189919;22;47843;-85
2022/12/26 07:51:25;;;;;;;;;1.00;1.00;;;;;12.15;72.62;101402.56;6216979;22;45182;-85
2022/12/26 07:53:51;;;;;;;;;2.33;1.67;;;;;12.17;72.79;101405.22;6190080;22;45214;-86
2022/12/26 07:56:16;;;;;;;;;1.00;1.00;;;;;12.17;72.72;101402.56;6215609;22;45355;-86
2022/12/26 07:58:42;;;;;;;;;1.00;1.00;;;;;12.22;72.83;101408.75;6217840;22;45278;-87
2022/12/26 08:01:07;;;;;;;;;2.00;2.00;;;;;12.22;73.00;101404.34;6189999;22;45523;-86
2022/12/26 08:03:33;;;;;;;;;5.67;5.00;;;;;12.26;72.94;101419.28;6190556;22;45336;-84
2022/12/26 08:05:59;;;;;;;;;2.00;1.67;;;;;12.28;72.65;101424.56;6189808;22;46794;-86
2022/12/26 08:08:24;;;;;;;;;2.33;2.00;;;;;12.24;72.90;101417.53;6194033;22;46929;-88
2022/12/26 08:11:01;;;;;;;;;3.00;2.00;;;;;12.26;72.92;101426.31;6221854;22;45342;-87
2022/12/26 08:13:27;;;;;;;;;1.00;1.00;;;;;12.34;72.60;101433.34;6247946;22;45314;-89
2022/12/26 08:15:53;;;;;;;;;1.33;1.33;;;;;12.34;72.81;101432.50;6221934;22;46233;-87
2022/12/26 08:18:18;;;;;;;;;3.67;3.67;;;;;12.36;72.88;101428.09;6220900;22;47115;-87
2022/12/26 08:20:43;;;;;;;;;2.00;2.00;;;;;12.42;72.79;101432.50;6220616;22;45753;-86
2022/12/26 08:23:09;;;;;;;;;5.00;3.33;;;;;12.44;72.71;101431.59;6220248;22;45479;-86
2022/12/26 08:25:34;;;;;;;;;1.33;1.33;;;;;12.44;72.90;101422.81;6245724;22;45935;-87
2022/12/26 08:27:59;;;;;;;;;3.00;2.00;;;;;12.47;72.70;101420.16;6247900;22;45237;-87
2022/12/26 08:30:25;;;;;;;;;2.00;2.00;;;;;12.53;72.99;101444.78;6220245;22;46010;-85
2022/12/26 08:32:50;;;;;;;;;2.00;1.00;;;;;12.52;72.65;101439.53;6220428;22;45142;-86
2022/12/26 08:35:16;;;;;;;;;2.00;2.00;;;;;12.51;72.65;101449.22;6219503;22;45483;-87
2022/12/26 08:37:41;;;;;;;;;2.00;2.00;;;;;12.54;72.60;101451.84;6247824;22;45988;-87
2022/12/26 08:40:07;;;;;;;;;2.33;1.00;;;;;12.57;72.19;101458.91;6247617;22;45177;-87
2022/12/26 08:42:33;;;;;;;;;2.00;2.00;;;;;12.55;72.31;101465.94;6219566;22;45438;-85
2022/12/26 08:44:58;;;;;;;;;1.33;1.33;;;;;12.57;72.58;101477.41;6247289;22;45383;-85
2022/12/26 08:47:25;;;;;;;;;1.00;1.00;;;;;12.53;72.17;101468.56;6219467;22;47297;-86
2022/12/26 08:49:50;;;;;;;;;1.00;1.00;;;;;12.50;72.24;101449.22;6219628;22;45375;-86
2022/12/26 08:52:16;;;;;;;;;2.33;2.00;;;;;12.55;72.61;101461.53;6245376;22;45284;-84
2022/12/26 08:54:41;;;;;;;;;3.00;2.00;;;;;12.55;72.20;101469.47;6220631;22;45515;-82
2022/12/26 08:57:07;;;;;;;;;1.67;1.67;;;;;12.56;72.45;101462.41;6245710;22;45409;-79
2022/12/26 08:59:32;;;;;;;;;2.33;2.33;;;;;12.53;72.28;101463.28;6246603;22;45375;-82
2022/12/26 09:01:57;;;;;;;;;2.67;2.00;;;;;12.50;72.24;101475.63;6247168;22;45133;-79
2022/12/26 09:04:25;;;;;;;;;2.00;2.00;;;;;12.54;72.58;101473.00;6246162;22;45459;-81
2022/12/26 09:06:51;;;;;;;;;1.00;1.00;;;;;12.55;72.15;101480.03;6246431;22;45570;-79
2022/12/26 09:09:17;;;;;;;;;2.00;1.00;;;;;12.55;72.52;101482.66;6230708;22;45295;-80
2022/12/26 09:11:42;;;;;;;;;3.33;2.00;;;;;12.55;72.28;101487.06;6188924;22;45880;-79
2022/12/26 09:14:09;;;;;;;;;2.00;2.00;;;;;12.55;72.31;101487.94;6188050;22;45408;-79
2022/12/26 09:16:42;;;;;;;;;2.67;2.67;;;;;12.67;72.37;101502.03;6187653;22;47706;-77
2022/12/26 09:19:16;;;;;;;;;2.00;2.00;;;;;12.70;72.17;101502.94;6188335;22;45541;-80
2022/12/26 09:21:43;;;;;;;;;1.33;1.33;;;;;12.69;72.36;101503.78;6189672;22;45277;-78
2022/12/26 09:24:14;;;;;;;;;2.33;2.33;;;;;12.70;72.15;101509.97;6217269;22;45595;-79
2022/12/26 09:26:40;;;;;;;;;1.33;1.33;;;;;12.74;71.84;101514.38;6190060;22;46859;-78
2022/12/26 09:29:06;;;;;;;;;0.00;0.00;;;;;12.77;71.84;101507.31;6189809;22;45290;-77
2022/12/26 09:31:34;;;;;;;;;2.33;2.33;;;;;12.79;71.80;101512.59;6189977;22;45304;-78
2022/12/26 09:34:06;;;;;;;;;4.00;4.00;;;;;12.83;71.93;101502.91;6189643;22;45413;-77
2022/12/26 09:36:36;;;;;;;;;2.00;2.00;;;;;12.89;71.98;101514.38;6189737;22;47310;-79
2022/12/26 09:39:03;;;;;;;;;3.00;2.00;;;;;12.96;71.64;101523.16;6189440;22;45676;-81
2022/12/26 09:41:47;;;;;;;;;2.00;2.00;;;;;12.95;71.32;101522.28;6215219;22;45426;-78
2022/12/26 09:44:35;;;;;;;;;5.33;3.00;;;;;12.96;71.45;101523.16;6189773;22;45343;-80
2022/12/26 09:47:28;;;;;;;;;3.00;3.00;;;;;12.95;71.31;101519.63;6216846;22;46427;-81
2022/12/26 09:50:18;;;;;;;;;3.00;2.00;;;;;12.98;71.30;101526.69;6216626;22;45246;-80
2022/12/26 09:52:43;;;;;;;;;2.33;1.67;;;;;13.05;71.34;101528.44;6217357;22;45232;-79
2022/12/26 09:55:18;;;;;;;;;2.67;2.00;;;;;13.07;71.29;101533.72;6189437;22;45329;-79
2022/12/26 10:05:06;;;;;;;;;1.33;1.00;;;;;13.13;70.87;101539.88;6152937;23;45236;-83
2022/12/26 10:08:45;;;;;;;;;3.00;2.00;;;;;13.21;71.12;101546.03;6115967;23;45845;-82
2022/12/26 10:12:18;;;;;;;;;;;;;;;;;;;;;
2022/12/26 10:16:16;;;;;;;;;0.33;0.33;;;;;13.18;70.48;101530.19;5890677;24;45787;-83
2022/12/26 10:19:26;;;;;;;;;2.67;2.00;;;;;13.35;70.57;101559.25;5863638;24;45702;-83
2022/12/26 10:22:34;;;;;;;;;;;;;;;;;;;;;
2022/12/26 10:25:06;;;;;;;;;3.67;2.00;;;;;13.41;70.20;101559.25;5918543;23;74918;-87
2022/12/26 10:27:49;;;;;;;;;2.00;2.00;;;;;13.39;70.43;101555.75;6055305;23;45501;-90
2022/12/26 10:30:40;;;;;;;;;3.00;3.00;;;;;13.46;70.09;101564.53;6134509;23;45645;-83
2022/12/26 10:43:25;;;;;;;;;2.00;1.00;;;;;13.50;69.37;101539.84;5951881;23;45435;-83
2022/12/26 10:46:47;;;;;;;;;1.00;1.00;;;;;13.59;69.08;101554.81;6079954;23;45505;-83
2022/12/26 10:49:16;;;;;;;;;3.00;2.00;;;;;13.61;69.03;101550.41;6219865;22;46544;-86
2022/12/26 10:51:44;;;;;;;;;1.33;1.00;;;;;13.66;69.18;101560.06;6220195;22;45630;-85
2022/12/26 10:57:07;;;;;;;;;0.67;0.67;;;;;13.68;68.93;101547.72;6226651;22;45138;-84
2022/12/26 10:59:48;;;;;;;;;2.00;1.00;;;;;13.70;68.33;101560.94;6232546;22;47508;-84
2022/12/26 11:02:31;;;;;;;;;1.33;1.00;;;;;13.69;68.10;101553.91;6228672;22;44938;-83
2022/12/26 11:05:20;;;;;;;;;1.00;1.00;;;;;13.70;68.10;101562.72;6253830;22;45267;-82
2022/12/26 11:08:26;;;;;;;;;1.33;1.33;;;;;13.72;68.41;101548.59;6230053;22;45222;-83
2022/12/26 11:11:06;;;;;;;;;3.00;1.00;;;;;13.84;68.18;101561.75;6218636;22;47102;-83
2022/12/26 11:13:37;;;;;;;;;1.33;1.00;;;;;13.82;68.21;101552.06;6222057;22;45298;-82
2022/12/26 11:16:04;;;;;;;;;1.00;1.00;;;;;13.86;67.97;101545.88;6226383;22;45184;-84
2022/12/26 11:18:37;;;;;;;;;2.00;2.00;;;;;13.94;67.97;101546.72;6218608;22;45417;-87
2022/12/26 11:21:34;;;;;;;;;4.00;4.00;;;;;14.10;67.46;101547.53;6188396;22;47214;-85
2022/12/26 11:24:06;;;;;;;;;2.33;1.33;;;;;14.16;67.17;101550.13;6187521;22;45367;-83
2022/12/26 11:26:31;;;;;;;;;1.00;1.00;;;;;14.13;66.80;101534.25;6212399;22;45193;-84
2022/12/26 11:29:13;;;;;;;;;1.33;1.33;;;;;14.31;66.66;101546.53;6214818;22;45749;-86
2022/12/26 11:31:57;;;;;;;;;2.33;1.67;;;;;14.46;66.33;101556.13;6214417;22;47788;-86
2022/12/26 11:34:38;;;;;;;;;1.00;1.00;;;;;14.52;65.87;101562.31;6215518;22;45283;-86
2022/12/26 11:37:06;;;;;;;;;2.00;1.00;;;;;14.44;65.81;101561.44;6190132;22;45402;-87
2022/12/26 11:39:37;;;;;;;;;1.33;1.33;;;;;14.39;65.46;101559.72;6214873;22;45378;-84
2022/12/26 11:42:11;;;;;;;;;3.00;2.00;;;;;14.35;65.44;101574.75;6192953;22;48079;-87
2022/12/26 11:44:41;;;;;;;;;0.00;0.00;;;;;14.25;65.01;101605.72;6190982;22;45301;-88
2022/12/26 11:47:12;;;;;;;;;3.67;3.67;;;;;14.01;64.57;101597.88;6189595;22;45344;-89
2022/12/26 11:49:59;;;;;;;;;2.00;2.00;;;;;13.78;64.60;101617.38;6190048;22;45695;-87
2022/12/26 11:52:53;;;;;;;;;1.67;1.67;;;;;13.48;65.11;101620.97;6191689;22;48494;-90
2022/12/26 11:55:22;;;;;;;;;1.33;0.00;;;;;13.23;66.05;101628.00;6191275;22;46058;-86
2022/12/26 11:58:07;;;;;;;;;5.33;4.00;;;;;12.96;67.83;101624.50;6191558;22;45282;-90
2022/12/26 12:00:43;;;;;;;;;1.00;1.00;;;;;12.77;68.34;101634.13;6191384;22;45631;-88
2022/12/26 12:03:36;;;;;;;;;2.00;1.00;;;;;12.56;68.85;101640.28;6193603;22;47044;-86
2022/12/26 12:06:11;;;;;;;;;1.00;1.00;;;;;12.37;69.51;101643.72;6196608;22;45916;-90
2022/12/26 12:08:42;;;;;;;;;1.00;1.00;;;;;12.25;69.83;101634.03;6191895;22;45544;-88
2022/12/26 12:11:07;;;;;;;;;0.67;0.33;;;;;12.10;70.51;101634.81;6217973;22;45181;-89
2022/12/26 12:14:00;;;;;;;;;2.00;2.00;;;;;12.02;71.25;101643.59;6196705;22;47025;-90
2022/12/26 12:17:14;;;;;;;;;4.00;1.00;;;;;11.93;71.72;101640.91;6218730;22;45420;-88
2022/12/26 12:19:44;;;;;;;;;4.33;2.67;;;;;11.87;72.14;101629.44;6175286;22;45307;-89
2022/12/26 12:22:21;;;;;;;;;4.67;4.67;;;;;11.85;72.62;101638.19;6216299;22;45390;-93
2022/12/26 12:25:24;;;;;;;;;2.00;2.00;;;;;11.77;72.41;101653.97;6192874;22;47519;-89
2022/12/26 12:28:03;;;;;;;;;1.00;1.00;;;;;11.65;71.77;101641.63;6190463;22;45360;-90
2022/12/26 12:30:33;;;;;;;;;2.67;1.67;;;;;11.61;71.95;101660.03;6190569;22;45357;-89
2022/12/26 12:33:23;;;;;;;;;0.33;0.33;;;;;11.54;71.79;101659.09;6190595;22;45267;-89
2022/12/26 12:36:11;;;;;;;;;1.00;1.00;;;;;11.43;71.61;101666.06;6190168;22;47168;-90
2022/12/26 12:38:52;;;;;;;;;3.33;1.67;;;;;11.43;71.84;101660.78;6216772;22;45182;-87
2022/12/26 12:41:17;;;;;;;;;0.67;0.67;;;;;11.41;71.48;101663.41;6216670;22;45330;-90
2022/12/26 12:44:02;;;;;;;;;1.00;1.00;;;;;11.36;71.99;101664.22;6215755;22;45150;-87
2022/12/26 12:46:46;;;;;;;;;0.67;0.00;;;;;11.39;71.59;101662.53;6215334;22;48418;-87
2022/12/26 12:50:12;;;;;;;;;2.67;1.67;;;;;11.37;71.51;101661.63;6215385;22;45443;-93
2022/12/26 12:52:48;;;;;;;;;2.33;1.33;;;;;11.51;71.77;101660.84;6155644;23;45421;-88
2022/12/26 12:55:38;;;;;;;;;2.00;1.67;;;;;11.62;71.55;101667.06;6156720;23;45194;-88
2022/12/26 12:58:33;;;;;;;;;1.00;1.00;;;;;11.66;70.67;101668.88;6189813;22;45987;-89
2022/12/26 13:01:07;;;;;;;;;2.33;1.00;;;;;11.65;70.53;101667.06;6216946;22;45349;-86
2022/12/26 13:03:47;;;;;;;;;4.00;2.33;;;;;11.75;70.49;101660.13;6217718;22;45674;-86
2022/12/26 13:06:20;;;;;;;;;1.33;1.33;;;;;11.88;70.48;101648.81;6217822;22;45476;-85
2022/12/26 13:08:53;;;;;;;;;4.67;2.33;;;;;12.09;69.60;101669.16;6221919;22;47198;-85
2022/12/26 13:11:34;;;;;;;;;1.00;1.00;;;;;12.26;69.17;101682.41;6221006;22;45329;-87
2022/12/26 13:14:19;;;;;;;;;1.00;1.00;;;;;12.30;68.65;101677.16;6221130;22;45542;-86
2022/12/26 13:17:10;;;;;;;;;2.67;2.00;;;;;12.36;68.20;101686.88;6220359;22;45176;-87
2022/12/26 13:19:39;;;;;;;;;2.67;1.00;;;;;12.30;67.99;101692.13;6220447;22;47061;-89
2022/12/26 13:22:12;;;;;;;;;2.00;2.00;;;;;12.24;67.63;101700.91;6218602;22;45201;-85
2022/12/26 13:24:43;;;;;;;;;2.00;1.67;;;;;12.20;67.28;101698.22;6220992;22;45461;-87
2022/12/26 13:27:21;;;;;;;;;1.00;1.00;;;;;12.13;67.58;101685.00;6219611;22;45793;-84
2022/12/26 13:29:47;;;;;;;;;2.00;2.00;;;;;12.11;67.38;101673.56;6219564;22;46990;-86
2022/12/26 13:32:33;;;;;;;;;2.33;2.00;;;;;12.11;67.27;101677.97;6219621;22;45260;-87
2022/12/26 13:35:00;;;;;;;;;2.00;2.00;;;;;12.18;66.98;101695.56;6245694;22;45312;-87
2022/12/26 13:37:38;;;;;;;;;1.33;1.33;;;;;12.15;66.79;101698.19;6220003;22;45311;-87
2022/12/26 13:40:10;;;;;;;;;3.00;2.00;;;;;12.14;66.71;101699.97;6218855;22;47737;-85
2022/12/26 13:45:58;;;;;;;;;2.00;1.67;;;;;12.27;66.36;101700.00;6248460;22;45356;-90
2022/12/26 13:48:28;;;;;;;;;2.00;2.00;;;;;12.39;66.07;101713.28;6225603;22;45595;-89
2022/12/26 13:50:56;;;;;;;;;3.00;1.00;;;;;12.50;66.13;101715.97;6246804;22;45380;-86
2022/12/26 13:53:24;;;;;;;;;5.00;3.33;;;;;12.53;65.75;101714.22;6248946;22;45272;-89
2022/12/26 13:55:58;;;;;;;;;3.33;2.00;;;;;12.51;65.45;101726.56;6221219;22;45397;-90
2022/12/26 13:58:54;;;;;;;;;2.00;2.00;;;;;12.51;65.22;101731.84;6222288;22;45249;-89
2022/12/26 14:01:35;;;;;;;;;5.67;4.00;;;;;12.46;65.30;101736.22;6221944;22;47466;-87
2022/12/26 14:04:22;;;;;;;;;2.00;1.00;;;;;12.41;64.62;101735.31;6220424;22;45325;-81
2022/12/26 14:07:11;;;;;;;;;2.33;1.33;;;;;12.27;64.60;101737.88;6246080;22;45426;-85
2022/12/26 14:09:50;;;;;;;;;3.00;3.00;;;;;12.19;64.94;101733.41;6245135;22;45268;-86
2022/12/26 14:12:49;;;;;;;;;1.33;1.33;;;;;12.17;64.67;101759.81;6245152;22;46062;-86
2022/12/26 14:15:29;;;;;;;;;2.67;1.00;;;;;12.07;64.53;101758.00;6217785;22;45388;-87
2022/12/26 14:18:12;;;;;;;;;4.00;3.00;;;;;12.03;64.66;101765.00;6219068;22;45492;-87
2022/12/26 14:21:16;;;;;;;;;2.33;2.33;;;;;11.97;64.92;101769.34;6246585;22;45588;-86
2022/12/26 14:23:52;;;;;;;;;3.25;3.25;;;;;11.96;64.80;101770.25;6245592;22;46354;-88